Time;durP1;ratioP1;P1;durP2;ratioP2;P2;SDS_P1;SDS_P2;PMS_P1;PMS_P2;Temp;Humidity;BMP_temperature;BMP_pressure;BME280_temperature;BME280_humidity;BME280_pressure;Samples;Min_cycle;Max_cycle;Signal;HPM_P1;HPM_P2
2022/05/21 00:01:50;;;;;;;1.55;1.20;;;15.90;99.90;;;;;;6237664;23;20433;-80
2022/05/21 00:04:16;;;;;;;3.15;1.27;;;15.80;99.90;;;;;;6237331;23;20004;-80
2022/05/21 00:06:42;;;;;;;2.30;1.33;;;15.90;99.90;;;;;;6237549;23;20453;-81
2022/05/21 00:09:08;;;;;;;1.40;1.30;;;16.00;99.90;;;;;;6237224;23;20126;-79
2022/05/21 00:11:34;;;;;;;2.78;1.40;;;16.10;99.90;;;;;;6237587;23;20008;-80
2022/05/21 00:13:59;;;;;;;1.95;1.63;;;16.10;99.90;;;;;;6236966;23;20366;-80
2022/05/21 00:16:25;;;;;;;3.72;1.80;;;16.10;99.90;;;;;;6237982;22;20465;-81
2022/05/21 00:18:51;;;;;;;2.42;1.50;;;16.00;99.90;;;;;;6237497;23;20384;-81
2022/05/21 00:21:16;;;;;;;3.10;1.65;;;16.00;99.90;;;;;;6236442;23;20020;-80
2022/05/21 00:23:42;;;;;;;2.30;1.70;;;16.00;99.90;;;;;;6236804;23;20034;-81
2022/05/21 00:26:14;;;;;;;2.78;1.38;;;15.90;99.90;;;;;;6236774;23;20605;-81
2022/05/21 00:28:42;;;;;;;5.28;2.00;;;15.90;99.90;;;;;;6237478;23;20022;-80
2022/05/21 00:31:10;;;;;;;1.65;1.48;;;15.80;99.90;;;;;;6236153;23;20095;-80
2022/05/21 00:33:36;;;;;;;3.60;1.67;;;15.80;99.90;;;;;;6237812;23;20000;-79
2022/05/21 00:36:05;;;;;;;1.50;1.40;;;15.80;99.90;;;;;;6237171;23;20004;-79
2022/05/21 00:38:32;;;;;;;1.80;1.48;;;15.90;99.90;;;;;;6237884;23;20011;-80
2022/05/21 00:40:58;;;;;;;4.75;1.77;;;16.00;99.90;;;;;;6237069;23;20022;-80
2022/05/21 00:43:38;;;;;;;3.35;1.90;;;16.10;99.90;;;;;;6237116;23;20008;-80
2022/05/21 00:46:10;;;;;;;5.47;2.00;;;16.10;99.90;;;;;;6237038;23;20031;-79
2022/05/21 00:48:37;;;;;;;1.58;1.48;;;16.00;99.90;;;;;;6237828;23;19996;-79
2022/05/21 00:51:06;;;;;;;2.00;1.80;;;16.10;99.90;;;;;;6238196;23;20065;-77
2022/05/21 00:53:32;;;;;;;2.85;1.50;;;16.20;99.90;;;;;;6236238;23;20008;-80
2022/05/21 00:55:58;;;;;;;1.83;1.73;;;16.20;99.90;;;;;;6237231;23;20668;-82
2022/05/21 01:01:12;;;;;;;10.55;1.80;;;15.80;99.90;;;;;;6237835;23;20051;-81
2022/05/21 01:03:38;;;;;;;1.67;1.55;;;15.50;99.90;;;;;;6236387;23;20004;-80
2022/05/21 01:06:04;;;;;;;2.78;1.65;;;15.50;99.90;;;;;;6237413;23;20040;-79
2022/05/21 01:08:30;;;;;;;2.42;1.70;;;15.60;99.90;;;;;;6236833;23;20342;-81
2022/05/21 01:11:01;;;;;;;1.65;1.55;;;15.70;99.90;;;;;;6236911;23;20016;-80
2022/05/21 01:13:32;;;;;;;2.03;1.60;;;15.80;99.90;;;;;;6237260;23;20035;-80
2022/05/21 01:15:59;;;;;;;2.28;1.80;;;15.90;99.90;;;;;;6237319;23;20004;-79
2022/05/21 01:18:25;;;;;;;2.38;1.75;;;15.90;99.90;;;;;;6236559;23;20412;-79
2022/05/21 01:20:57;;;;;;;2.22;1.70;;;15.90;99.90;;;;;;6236301;23;20039;-79
2022/05/21 01:23:24;;;;;;;1.25;1.15;;;15.90;99.90;;;;;;6236432;22;20031;-80
2022/05/21 01:25:50;;;;;;;1.60;1.50;;;15.80;99.90;;;;;;6236772;23;20449;-79
2022/05/21 01:28:19;;;;;;;1.95;1.58;;;15.70;99.90;;;;;;6237915;23;20038;-79
2022/05/21 01:30:50;;;;;;;2.22;1.73;;;15.70;99.90;;;;;;6237366;23;20046;-79
2022/05/21 01:33:18;;;;;;;1.77;1.67;;;15.60;99.90;;;;;;6236063;23;20062;-79
2022/05/21 01:35:46;;;;;;;2.10;1.70;;;15.60;99.90;;;;;;6237531;23;20516;-79
2022/05/21 01:38:14;;;;;;;2.40;1.80;;;15.50;99.90;;;;;;6236584;23;20004;-79
2022/05/21 01:40:40;;;;;;;4.18;1.60;;;15.50;99.90;;;;;;6237056;23;20036;-78
2022/05/21 01:45:52;;;;;;;2.92;1.90;;;15.40;99.90;;;;;;6237750;23;20035;-79
2022/05/21 01:48:23;;;;;;;2.53;2.20;;;15.50;99.90;;;;;;6235907;23;20005;-78
2022/05/21 01:50:51;;;;;;;2.10;1.90;;;15.60;99.90;;;;;;6236426;23;19999;-79
2022/05/21 01:53:18;;;;;;;2.25;2.05;;;15.70;99.90;;;;;;6236418;23;20008;-80
2022/05/21 01:55:44;;;;;;;1.95;1.77;;;15.70;99.90;;;;;;6237504;23;20032;-80
2022/05/21 01:58:10;;;;;;;3.22;1.73;;;15.70;99.90;;;;;;6237343;23;20422;-79
2022/05/21 02:00:36;;;;;;;2.08;1.98;;;15.80;99.90;;;;;;6210338;23;20020;-79
2022/05/21 02:03:02;;;;;;;2.63;2.40;;;15.90;99.90;;;;;;6235123;23;20004;-82
2022/05/21 02:05:28;;;;;;;2.35;2.03;;;16.00;99.90;;;;;;6235899;23;20063;-78
2022/05/21 02:07:53;;;;;;;2.35;2.13;;;15.90;99.90;;;;;;6234856;23;20470;-79
2022/05/21 02:10:19;;;;;;;4.43;2.20;;;16.00;99.90;;;;;;6235409;23;20000;-79
2022/05/21 02:12:45;;;;;;;2.40;2.20;;;16.10;99.90;;;;;;6236348;23;20062;-81
2022/05/21 02:15:11;;;;;;;4.15;2.92;;;16.10;99.90;;;;;;6237032;23;20058;-80
2022/05/21 02:17:36;;;;;;;2.72;2.45;;;16.00;99.90;;;;;;6236370;23;20092;-80
2022/05/21 02:20:04;;;;;;;6.43;3.03;;;16.00;99.90;;;;;;6234684;23;20094;-80
2022/05/21 02:22:30;;;;;;;4.90;2.72;;;17.00;99.90;;;;;;6236926;23;20519;-81
2022/05/21 02:24:56;;;;;;;4.82;3.10;;;18.40;99.90;;;;;;6235393;23;20087;-82
2022/05/21 02:27:21;;;;;;;5.65;3.53;;;19.10;99.90;;;;;;6234573;22;20844;-83
2022/05/21 02:29:47;;;;;;;4.75;3.22;;;19.20;99.90;;;;;;6236363;22;20563;-80
2022/05/21 02:32:14;;;;;;;4.53;3.13;;;19.30;99.90;;;;;;6235772;23;20035;-81
2022/05/21 02:34:41;;;;;;;4.82;3.88;;;19.40;99.90;;;;;;6207447;23;20712;-80
2022/05/21 02:39:51;;;;;;;4.20;3.53;;;19.20;99.90;;;;;;6234729;23;20056;-82
2022/05/21 02:45:03;;;;;;;4.38;3.42;;;18.70;99.90;;;;;;6235979;23;20062;-79
2022/05/21 02:47:29;;;;;;;4.65;3.45;;;18.50;99.90;;;;;;6234852;23;20015;-80
2022/05/21 02:49:56;;;;;;;3.47;3.17;;;18.50;99.90;;;;;;6235184;23;20004;-80
2022/05/21 02:52:21;;;;;;;3.75;3.35;;;18.50;99.90;;;;;;6236370;23;20003;-78
2022/05/21 02:54:47;;;;;;;4.57;3.50;;;18.50;99.90;;;;;;6234614;23;20092;-78
2022/05/21 02:57:12;;;;;;;5.25;3.35;;;18.60;99.90;;;;;;6235078;23;20039;-79
2022/05/21 02:59:39;;;;;;;4.35;3.40;;;18.50;99.90;;;;;;6235449;23;20031;-79
2022/05/21 03:02:05;;;;;;;5.78;3.58;;;18.50;99.90;;;;;;6237497;23;20390;-77
2022/05/21 03:04:31;;;;;;;5.13;3.80;;;18.40;99.90;;;;;;6237315;23;20051;-76
2022/05/21 03:06:57;;;;;;;3.58;3.25;;;18.40;99.90;;;;;;6238088;23;20004;-77
2022/05/21 03:12:09;;;;;;;6.88;3.65;;;18.20;99.90;;;;;;6237144;23;20455;-77
2022/05/21 03:14:35;;;;;;;6.25;3.50;;;18.30;99.90;;;;;;6238466;23;20418;-77
2022/05/21 03:17:00;;;;;;;3.65;3.05;;;18.40;99.90;;;;;;6238032;23;20003;-76
2022/05/21 03:19:28;;;;;;;9.82;3.70;;;18.30;99.90;;;;;;6237345;23;20008;-77
2022/05/21 03:21:54;;;;;;;7.75;4.60;;;18.30;99.90;;;;;;6237644;23;20058;-77
2022/05/21 03:24:19;;;;;;;4.38;3.47;;;18.30;99.90;;;;;;6211116;23;20429;-78
2022/05/21 03:26:46;;;;;;;5.28;3.60;;;18.30;99.90;;;;;;6237653;23;20317;-77
2022/05/21 03:29:12;;;;;;;4.25;3.28;;;18.20;99.90;;;;;;6236875;23;20059;-77
2022/05/21 03:31:38;;;;;;;5.78;2.97;;;18.10;99.90;;;;;;6224752;23;20016;-77
2022/05/21 03:34:04;;;;;;;4.93;3.42;;;18.00;99.90;;;;;;6237501;23;20096;-76
2022/05/21 03:36:30;;;;;;;5.95;3.35;;;18.00;99.90;;;;;;6239111;23;20035;-77
2022/05/21 03:38:57;;;;;;;6.97;3.53;;;17.90;99.90;;;;;;6238305;23;20321;-76
2022/05/21 03:41:23;;;;;;;4.38;2.72;;;17.80;99.90;;;;;;6237778;23;20044;-78
2022/05/21 03:43:50;;;;;;;3.80;2.78;;;17.80;99.90;;;;;;6236795;23;20091;-77
2022/05/21 03:46:16;;;;;;;4.82;2.60;;;17.80;99.90;;;;;;6238052;23;20008;-78
2022/05/21 03:48:41;;;;;;;5.82;2.50;;;17.80;99.90;;;;;;6237083;23;20129;-77
2022/05/21 03:51:07;;;;;;;3.47;2.70;;;17.70;99.90;;;;;;6237598;23;20023;-73
2022/05/21 03:53:33;;;;;;;5.07;2.10;;;17.70;99.90;;;;;;6237094;23;20000;-76
2022/05/21 03:55:59;;;;;;;4.72;1.92;;;17.70;99.90;;;;;;6237083;23;20441;-77
2022/05/21 03:58:25;;;;;;;3.85;1.95;;;17.80;99.90;;;;;;6237708;23;20081;-75
2022/05/21 04:00:51;;;;;;;3.88;2.08;;;17.80;99.90;;;;;;6237832;22;20008;-76
2022/05/21 04:03:17;;;;;;;3.53;1.45;;;17.90;99.90;;;;;;6210108;23;20012;-75
2022/05/21 04:05:43;;;;;;;3.70;1.40;;;18.00;99.90;;;;;;6237140;23;20008;-75
2022/05/21 04:08:09;;;;;;;2.30;1.35;;;18.10;99.90;;;;;;6238104;23;20007;-75
2022/05/21 04:10:36;;;;;;;4.43;1.67;;;18.10;99.90;;;;;;6238275;23;20039;-77
2022/05/21 04:13:01;;;;;;;2.92;1.55;;;18.10;99.90;;;;;;6238281;23;20011;-76
2022/05/21 04:15:27;;;;;;;4.68;1.80;;;18.10;99.90;;;;;;6211380;23;20020;-76
2022/05/21 04:17:56;;;;;;;1.75;1.20;;;18.10;99.90;;;;;;6238265;23;20038;-75
2022/05/21 04:20:23;;;;;;;3.08;2.08;;;18.00;99.90;;;;;;6237347;23;20087;-76
2022/05/21 04:22:49;;;;;;;4.78;2.00;;;18.10;99.90;;;;;;6236177;23;20091;-77
2022/05/21 04:25:16;;;;;;;3.50;1.85;;;18.00;99.90;;;;;;6237481;23;20004;-75
2022/05/21 04:27:42;;;;;;;4.80;2.55;;;18.00;99.90;;;;;;6237288;23;20007;-77
2022/05/21 04:30:21;;;;;;;2.47;1.80;;;17.90;99.90;;;;;;6238232;23;20493;-76
2022/05/21 04:32:47;;;;;;;4.15;1.80;;;17.90;99.90;;;;;;6237117;23;20008;-76
2022/05/21 04:35:15;;;;;;;4.07;2.10;;;17.90;99.90;;;;;;6237119;23;20003;-77
2022/05/21 04:37:41;;;;;;;2.85;2.08;;;17.80;99.90;;;;;;6236586;23;20000;-77
2022/05/21 04:40:10;;;;;;;3.20;2.03;;;17.90;99.90;;;;;;6237000;23;20481;-77
2022/05/21 04:42:36;;;;;;;7.50;2.25;;;18.00;99.90;;;;;;6237249;23;20000;-78
2022/05/21 04:45:04;;;;;;;5.15;2.10;;;18.00;99.90;;;;;;6237283;23;20028;-77
2022/05/21 04:47:30;;;;;;;4.47;2.17;;;18.10;99.90;;;;;;6238275;22;20715;-79
2022/05/21 04:49:55;;;;;;;2.83;2.00;;;18.10;99.90;;;;;;6236880;23;20042;-78
2022/05/21 04:52:21;;;;;;;4.28;2.05;;;18.10;99.90;;;;;;6236168;23;20019;-77
2022/05/21 04:54:47;;;;;;;2.30;1.73;;;18.00;99.90;;;;;;6237948;23;20059;-77
2022/05/21 04:57:13;;;;;;;8.35;2.20;;;18.00;99.90;;;;;;6234201;23;20399;-78
2022/05/21 04:59:38;;;;;;;3.65;1.77;;;18.00;99.90;;;;;;6237744;23;20100;-78
2022/05/21 05:02:05;;;;;;;2.88;1.80;;;18.10;99.90;;;;;;6237864;23;20004;-78
2022/05/21 05:04:32;;;;;;;2.92;1.70;;;18.10;99.90;;;;;;6237339;23;20007;-78
2022/05/21 05:06:57;;;;;;;3.92;2.00;;;18.20;99.90;;;;;;6237758;23;20016;-78
2022/05/21 05:09:23;;;;;;;7.35;1.40;;;18.30;99.90;;;;;;6237491;22;20688;-79
2022/05/21 05:11:51;;;;;;;2.67;2.10;;;18.30;99.90;;;;;;6237546;23;20039;-78
2022/05/21 05:14:18;;;;;;;1.98;1.48;;;18.40;99.90;;;;;;6238739;23;20574;-88
2022/05/21 05:16:44;;;;;;;2.50;1.20;;;18.60;99.90;;;;;;6238009;23;20045;-78
2022/05/21 05:19:10;;;;;;;3.05;1.30;;;18.80;99.90;;;;;;6237923;22;20007;-77
2022/05/21 05:21:36;;;;;;;4.20;1.38;;;19.10;99.90;;;;;;6237250;23;20065;-83
2022/05/21 05:24:03;;;;;;;4.13;1.40;;;19.30;99.90;;;;;;6237185;23;20005;-80
2022/05/21 05:26:29;;;;;;;1.80;1.23;;;19.50;99.90;;;;;;6236612;23;20007;-79
2022/05/21 05:28:54;;;;;;;4.07;1.30;;;19.50;99.90;;;;;;6237825;22;20335;-77
2022/05/21 05:46:20;;;;;;;1.75;1.27;;;19.60;99.90;;;;;;6207576;22;20070;-72
2022/05/21 05:48:45;;;;;;;6.63;1.75;;;19.40;99.90;;;;;;6207321;23;20095;-72
2022/05/21 05:51:11;;;;;;;2.50;1.42;;;19.40;99.90;;;;;;6206863;23;20460;-73
2022/05/21 05:53:37;;;;;;;2.45;1.35;;;19.30;99.90;;;;;;6207459;23;20548;-72
2022/05/21 05:56:06;;;;;;;2.83;1.48;;;19.20;99.90;;;;;;6206573;23;20066;-72
2022/05/21 06:01:16;;;;;;;9.07;1.67;;;19.10;99.90;;;;;;6208054;23;20083;-82
2022/05/21 06:03:42;;;;;;;2.03;1.40;;;19.10;99.90;;;;;;6207613;23;20009;-78
2022/05/21 06:06:08;;;;;;;3.03;1.60;;;19.00;99.90;;;;;;6208792;23;20012;-77
2022/05/21 06:08:34;;;;;;;1.90;1.45;;;18.90;99.90;;;;;;6181908;23;20007;-78
2022/05/21 06:10:59;;;;;;;4.70;1.70;;;18.80;99.90;;;;;;6208129;23;20005;-78
2022/05/21 06:13:25;;;;;;;4.07;1.42;;;18.80;99.90;;;;;;6207706;23;20009;-74
2022/05/21 06:15:50;;;;;;;2.35;1.45;;;18.60;99.90;;;;;;6206899;23;20449;-79
2022/05/21 06:18:20;;;;;;;2.70;1.77;;;18.60;99.90;;;;;;6208465;23;20314;-75
2022/05/21 06:20:46;;;;;;;2.50;1.25;;;18.60;99.90;;;;;;6205706;23;20009;-77
2022/05/21 06:23:13;;;;;;;3.30;1.80;;;18.60;99.90;;;;;;6207246;23;20005;-77
2022/05/21 06:25:38;;;;;;;2.58;1.40;;;18.60;99.90;;;;;;6208090;23;20023;-75
2022/05/21 06:28:05;;;;;;;2.00;1.20;;;18.60;99.90;;;;;;6209036;23;20678;-72
2022/05/21 06:30:33;;;;;;;2.28;1.48;;;18.60;99.90;;;;;;6208161;23;20088;-74
2022/05/21 06:33:20;;;;;;;2.80;1.73;;;18.50;99.90;;;;;;6208352;23;20001;-71
2022/05/21 06:35:47;;;;;;;2.00;1.50;;;18.60;99.90;;;;;;6208320;23;20008;-71
2022/05/21 06:38:14;;;;;;;2.30;1.60;;;18.60;99.90;;;;;;6206322;23;20015;-70
2022/05/21 06:40:39;;;;;;;1.45;1.27;;;18.60;99.90;;;;;;6207673;23;20016;-71
2022/05/21 06:43:06;;;;;;;3.78;1.70;;;18.70;99.90;;;;;;6180964;23;20084;-70
2022/05/21 06:45:32;;;;;;;3.67;1.77;;;18.70;99.90;;;;;;6207187;23;20008;-70
2022/05/21 06:48:07;;;;;;;2.95;1.85;;;18.60;99.90;;;;;;6206420;23;20470;-69
2022/05/21 06:50:33;;;;;;;4.53;1.50;;;18.70;99.90;;;;;;6207401;23;20458;-70
2022/05/21 06:52:59;;;;;;;5.65;1.80;;;18.70;99.90;;;;;;6206325;23;20052;-70
2022/05/21 06:55:26;;;;;;;3.63;1.88;;;18.80;99.90;;;;;;6209032;23;20028;-70
2022/05/21 06:57:52;;;;;;;2.20;1.80;;;18.90;99.90;;;;;;6208642;23;20036;-70
2022/05/21 07:00:21;;;;;;;1.98;1.77;;;19.00;99.90;;;;;;6208179;23;20020;-70
2022/05/21 07:02:48;;;;;;;3.85;2.28;;;19.10;99.90;;;;;;6205984;23;20004;-73
2022/05/21 07:08:00;;;;;;;2.97;2.20;;;19.40;99.90;;;;;;6207347;23;20023;-71
2022/05/21 07:10:29;;;;;;;4.15;2.15;;;19.60;99.90;;;;;;6208549;23;20004;-70
2022/05/21 07:12:54;;;;;;;2.67;2.08;;;19.70;99.90;;;;;;6206972;23;19997;-71
2022/05/21 07:15:20;;;;;;;5.13;2.17;;;19.80;99.90;;;;;;6208499;23;20035;-70
2022/05/21 07:17:47;;;;;;;3.20;2.30;;;19.80;99.90;;;;;;6207978;23;20014;-71
2022/05/21 07:20:17;;;;;;;3.63;2.28;;;19.80;99.90;;;;;;6207662;23;20408;-71
2022/05/21 07:22:44;;;;;;;2.50;2.15;;;19.90;99.90;;;;;;6207191;23;20476;-70
2022/05/21 07:25:12;;;;;;;2.42;1.85;;;19.90;99.90;;;;;;6208721;23;20414;-70
2022/05/21 07:27:38;;;;;;;4.40;2.30;;;19.90;99.90;;;;;;6209536;23;20005;-74
2022/05/21 07:30:05;;;;;;;8.43;1.88;;;20.00;99.90;;;;;;6208067;23;20454;-71
2022/05/21 07:32:30;;;;;;;2.95;2.10;;;20.00;99.90;;;;;;6207201;23;20346;-73
2022/05/21 07:35:04;;;;;;;5.00;2.15;;;20.00;99.90;;;;;;6205911;23;20016;-65
2022/05/21 07:37:30;;;;;;;3.75;2.35;;;20.00;99.90;;;;;;6207433;23;20071;-73
2022/05/21 07:39:56;;;;;;;2.45;2.25;;;20.10;99.90;;;;;;6205245;23;20030;-69
2022/05/21 07:42:22;;;;;;;3.40;2.38;;;20.20;99.90;;;;;;6207721;23;20094;-67
2022/05/21 07:44:48;;;;;;;4.00;2.40;;;20.30;99.90;;;;;;6206429;23;20441;-65
2022/05/21 07:47:14;;;;;;;4.18;2.30;;;20.40;99.90;;;;;;6218600;23;20463;-73
2022/05/21 07:49:40;;;;;;;3.42;2.40;;;20.50;99.90;;;;;;6237504;23;20004;-67
2022/05/21 07:52:06;;;;;;;3.17;2.25;;;20.50;99.90;;;;;;6236296;23;20434;-70
2022/05/21 07:54:32;;;;;;;3.30;2.70;;;20.50;99.90;;;;;;6238877;23;20038;-66
2022/05/21 07:56:59;;;;;;;6.32;2.47;;;20.50;99.90;;;;;;6237006;23;20016;-68
2022/05/21 07:59:25;;;;;;;5.53;2.53;;;20.70;99.90;;;;;;6237432;23;20008;-66
2022/05/21 08:01:50;;;;;;;7.88;2.15;;;20.80;99.90;;;;;;6237125;23;20023;-66
2022/05/21 08:04:17;;;;;;;3.40;2.63;;;20.90;99.90;;;;;;6236252;23;20031;-66
2022/05/21 08:06:43;;;;;;;3.53;2.45;;;20.90;99.90;;;;;;6238069;23;20090;-67
2022/05/21 08:09:09;;;;;;;3.08;2.17;;;21.00;99.90;;;;;;6236239;23;20005;-67
2022/05/21 08:11:35;;;;;;;4.32;2.55;;;21.00;99.90;;;;;;6238047;23;20004;-70
2022/05/21 08:14:01;;;;;;;3.13;2.60;;;21.00;99.90;;;;;;6236443;23;20083;-68
2022/05/21 08:16:26;;;;;;;4.43;2.70;;;21.10;99.90;;;;;;6237969;23;20000;-68
2022/05/21 08:18:52;;;;;;;5.15;2.95;;;21.30;99.90;;;;;;6236556;23;20008;-68
2022/05/21 08:21:18;;;;;;;4.55;2.47;;;21.40;99.90;;;;;;6236310;23;20028;-68
2022/05/21 08:29:12;;;;;;;3.90;2.47;;;22.00;99.90;;;;;;6236945;23;20018;-68
2022/05/21 08:31:38;;;;;;;5.40;3.25;;;22.30;99.90;;;;;;6225377;23;20006;-65
2022/05/21 08:34:04;;;;;;;3.42;2.80;;;22.40;99.90;;;;;;6236640;23;20327;-65
2022/05/21 08:36:30;;;;;;;3.63;2.13;;;22.30;99.90;;;;;;6237122;23;20399;-65
2022/05/21 08:38:55;;;;;;;6.10;2.70;;;22.40;99.90;;;;;;6237195;23;20027;-65
2022/05/21 08:41:27;;;;;;;4.35;3.20;;;22.50;99.90;;;;;;6236060;23;20020;-68
2022/05/21 08:44:15;;;;;;;16.50;5.03;;;22.40;99.90;;;;;;6237549;23;20426;-68
2022/05/21 08:46:47;;;;;;;8.38;4.05;;;22.40;99.90;;;;;;6237215;23;20019;-69
2022/05/21 08:49:33;;;;;;;;;;;22.40;99.90;;;;;;6237886;23;20015;-68
2022/05/21 08:52:21;;;;;;;9.40;3.67;;;22.40;99.90;;;;;;6236221;23;19909;-68
2022/05/21 08:54:48;;;;;;;4.10;3.30;;;22.60;99.90;;;;;;6235772;23;20003;-73
2022/05/21 08:57:51;;;;;;;13.35;4.63;;;22.70;99.90;;;;;;6234889;23;20601;-74
2022/05/21 09:00:33;;;;;;;7.28;2.88;;;22.60;99.90;;;;;;6236593;23;20008;-72
2022/05/21 09:02:59;;;;;;;5.30;2.40;;;22.60;99.90;;;;;;6235819;23;20008;-72
2022/05/21 09:05:25;;;;;;;13.15;3.33;;;22.70;99.50;;;;;;6235733;23;20004;-75
2022/05/21 09:08:18;;;;;;;3.63;2.60;;;22.70;99.00;;;;;;6233310;23;20087;-74
2022/05/21 09:11:01;;;;;;;2.53;2.33;;;22.90;99.90;;;;;;6237650;23;20004;-72
2022/05/21 09:14:15;;;;;;;3.72;2.30;;;22.90;98.60;;;;;;6237812;23;20031;-74
2022/05/21 09:16:54;;;;;;;2.63;2.28;;;22.90;99.60;;;;;;6115820;23;20439;-73
2022/05/21 09:19:25;;;;;;;6.40;2.30;;;23.00;98.90;;;;;;6223759;23;20084;-75
2022/05/21 09:22:01;;;;;;;2.97;2.40;;;22.90;98.90;;;;;;6237400;23;20040;-73
2022/05/21 09:24:46;;;;;;;3.80;2.00;;;23.00;99.90;;;;;;6242844;23;20694;-76
2022/05/21 09:27:31;;;;;;;4.60;2.40;;;23.20;97.40;;;;;;6237909;23;20008;-72
2022/05/21 09:30:24;;;;;;;4.50;2.40;;;23.20;97.50;;;;;;6238992;23;20685;-72
2022/05/21 09:32:56;;;;;;;4.75;2.10;;;23.20;97.40;;;;;;6238142;23;20015;-74
2022/05/21 09:35:24;;;;;;;4.47;2.38;;;23.40;97.80;;;;;;6239012;23;20000;-73
2022/05/21 09:37:50;;;;;;;2.50;1.92;;;23.50;99.70;;;;;;6238164;23;20054;-74
2022/05/21 09:40:31;;;;;;;4.15;2.45;;;23.70;97.40;;;;;;6238824;23;20306;-73
2022/05/21 09:45:42;;;;;;;3.40;2.28;;;23.50;96.10;;;;;;6239906;23;20019;-74
2022/05/21 09:48:08;;;;;;;5.78;2.25;;;23.40;96.00;;;;;;6210530;23;20105;-72
2022/05/21 09:50:51;;;;;;;3.13;2.00;;;23.40;97.00;;;;;;6236300;23;20020;-72
2022/05/21 09:53:34;;;;;;;7.45;2.45;;;23.50;97.30;;;;;;6236617;23;20006;-75
2022/05/21 09:56:07;;;;;;;3.55;2.60;;;23.50;96.50;;;;;;6237597;23;20044;-70
2022/05/21 09:58:37;;;;;;;3.40;2.45;;;23.50;97.10;;;;;;6235425;23;20019;-72
2022/05/21 10:01:05;;;;;;;9.25;2.30;;;23.50;96.90;;;;;;6237200;23;20008;-72
2022/05/21 10:03:41;;;;;;;3.28;1.90;;;23.40;96.70;;;;;;6237938;23;20012;-72
2022/05/21 10:06:18;;;;;;;3.30;2.92;;;23.50;97.10;;;;;;6237322;23;20004;-72
2022/05/21 10:11:55;;;;;;;8.05;2.35;;;23.20;96.50;;;;;;6237197;23;20098;-66
2022/05/21 10:14:23;;;;;;;3.80;2.03;;;23.00;95.30;;;;;;6238667;23;19996;-69
2022/05/21 10:16:53;;;;;;;3.95;1.98;;;22.80;94.90;;;;;;6238391;23;20031;-74
2022/05/21 10:19:45;;;;;;;2.30;2.08;;;22.80;94.80;;;;;;6236370;23;19996;-66
2022/05/21 10:22:36;;;;;;;5.63;2.15;;;22.80;95.60;;;;;;6237005;23;20012;-74
2022/05/21 10:25:09;;;;;;;4.80;2.00;;;22.80;94.90;;;;;;6238608;23;20038;-67
2022/05/21 10:27:53;;;;;;;3.95;1.90;;;22.80;95.60;;;;;;6237030;23;20669;-75
2022/05/21 10:30:27;;;;;;;3.33;1.80;;;22.90;94.50;;;;;;6238579;23;20018;-74
2022/05/21 10:33:12;;;;;;;3.60;2.05;;;23.00;96.60;;;;;;6234978;23;20377;-73
2022/05/21 10:35:58;;;;;;;2.58;1.77;;;23.10;95.30;;;;;;6237520;23;20012;-74
2022/05/21 10:38:26;;;;;;;8.18;1.88;;;23.30;94.70;;;;;;6237997;23;20003;-73
2022/05/21 10:41:09;;;;;;;4.07;2.03;;;23.40;94.60;;;;;;6237637;23;20042;-73
2022/05/21 10:44:09;;;;;;;3.40;1.92;;;23.50;93.50;;;;;;6238919;23;20076;-72
2022/05/21 10:46:37;;;;;;;6.45;1.70;;;23.50;92.90;;;;;;6241555;23;20075;-71
2022/05/21 10:49:28;;;;;;;4.72;1.75;;;23.50;93.70;;;;;;6209425;23;20437;-70
2022/05/21 10:52:02;;;;;;;4.85;2.10;;;23.60;93.80;;;;;;6238081;23;20008;-75
2022/05/21 10:54:36;;;;;;;2.38;1.80;;;23.60;92.70;;;;;;6229249;23;20083;-74
2022/05/21 10:57:23;;;;;;;4.30;1.85;;;23.50;92.80;;;;;;6235572;23;20027;-78
2022/05/21 11:00:09;;;;;;;4.25;1.80;;;23.30;94.10;;;;;;6234861;23;20004;-72
2022/05/21 11:03:06;;;;;;;7.03;2.50;;;23.50;93.90;;;;;;6232138;23;20004;-75
2022/05/21 11:05:38;;;;;;;8.38;2.33;;;23.60;93.90;;;;;;6236568;23;20426;-76
2022/05/21 11:08:37;;;;;;;5.63;1.92;;;23.60;93.30;;;;;;6242002;23;20008;-74
2022/05/21 11:11:24;;;;;;;4.05;1.70;;;23.80;92.80;;;;;;6236671;23;20493;-70
2022/05/21 11:14:27;;;;;;;2.90;1.65;;;23.80;92.70;;;;;;6236857;23;20006;-75
2022/05/21 11:17:08;;;;;;;5.28;1.70;;;23.80;91.80;;;;;;6155426;23;20511;-64
2022/05/21 11:19:58;;;;;;;5.63;1.80;;;23.80;92.50;;;;;;6238061;23;20011;-64
2022/05/21 11:22:42;;;;;;;2.78;1.60;;;23.90;91.50;;;;;;6237376;23;20344;-65
2022/05/21 11:25:35;;;;;;;3.67;1.48;;;24.00;93.10;;;;;;6238518;23;20007;-65
2022/05/21 11:28:34;;;;;;;2.88;1.90;;;24.10;91.30;;;;;;6237402;23;20026;-65
2022/05/21 11:31:15;;;;;;;1.42;1.33;;;24.00;93.10;;;;;;6236754;23;20027;-70
2022/05/21 11:39:33;;;;;;;3.13;1.30;;;24.20;92.60;;;;;;6174138;23;20020;-66
2022/05/21 11:42:03;;;;;;;2.63;1.40;;;24.40;91.50;;;;;;6211036;23;20024;-64
2022/05/21 11:44:58;;;;;;;1.42;1.08;;;24.50;91.30;;;;;;6236740;23;20001;-67
2022/05/21 11:47:24;;;;;;;6.05;1.40;;;24.40;86.50;;;;;;6237484;23;20020;-62
2022/05/21 11:49:58;;;;;;;3.63;1.27;;;24.20;88.60;;;;;;6237409;23;20125;-68
2022/05/21 11:52:29;;;;;;;4.53;1.30;;;24.10;89.40;;;;;;6238069;23;20019;-64
2022/05/21 11:54:54;;;;;;;1.97;1.27;;;24.10;89.30;;;;;;6237657;23;20000;-64
2022/05/21 11:57:34;;;;;;;2.63;1.10;;;24.20;90.70;;;;;;6237832;23;20014;-62
2022/05/21 12:00:28;;;;;;;2.95;1.30;;;24.20;89.30;;;;;;6236556;23;20054;-72
2022/05/21 12:02:53;;;;;;;3.92;1.20;;;24.10;85.90;;;;;;6209393;23;20039;-70
2022/05/21 12:05:37;;;;;;;2.50;1.10;;;24.00;90.10;;;;;;6236800;23;20409;-66
2022/05/21 12:08:22;;;;;;;2.05;1.30;;;24.20;87.10;;;;;;6237887;23;20008;-69
2022/05/21 12:11:09;;;;;;;5.32;1.00;;;24.30;86.80;;;;;;6235956;23;20445;-62
2022/05/21 12:13:35;;;;;;;1.33;1.08;;;24.30;88.40;;;;;;6237942;23;20003;-63
2022/05/21 12:16:22;;;;;;;3.25;1.30;;;24.50;90.00;;;;;;6237428;23;20004;-67
2022/05/21 12:18:52;;;;;;;1.65;0.90;;;24.50;82.00;;;;;;6236195;23;20000;-71
2022/05/21 12:21:52;;;;;;;2.35;1.02;;;24.50;81.40;;;;;;6237645;23;20024;-71
2022/05/21 12:24:35;;;;;;;2.72;1.00;;;24.60;82.80;;;;;;6209471;23;20012;-70
2022/05/21 12:27:15;;;;;;;2.75;0.60;;;24.70;77.10;;;;;;6236342;23;20433;-70
2022/05/21 12:29:45;;;;;;;1.98;0.88;;;24.80;80.40;;;;;;6237794;23;20003;-76
2022/05/21 12:32:23;;;;;;;1.52;1.13;;;24.80;82.60;;;;;;6236634;23;20004;-73
2022/05/21 12:35:25;;;;;;;2.08;0.80;;;25.00;79.70;;;;;;6236852;23;20027;-75
2022/05/21 12:38:16;;;;;;;0.98;0.90;;;25.10;79.50;;;;;;6237164;23;20004;-69
2022/05/21 12:40:59;;;;;;;1.88;0.75;;;25.20;79.90;;;;;;6209709;23;20384;-68
2022/05/21 12:43:25;;;;;;;4.43;0.70;;;25.30;76.20;;;;;;6238116;23;20007;-67
2022/05/21 12:45:53;;;;;;;2.25;0.70;;;25.30;72.80;;;;;;6209652;23;20073;-71
2022/05/21 12:48:31;;;;;;;7.05;1.23;;;25.30;69.20;;;;;;6237011;23;20020;-68
2022/05/21 12:50:59;;;;;;;2.10;0.63;;;25.20;71.70;;;;;;6237234;23;20428;-70
2022/05/21 12:53:46;;;;;;;0.77;0.50;;;25.10;67.50;;;;;;6236227;23;20507;-72
2022/05/21 12:56:12;;;;;;;1.55;0.70;;;24.90;73.00;;;;;;6236882;23;20365;-72
2022/05/21 12:58:39;;;;;;;2.17;0.75;;;25.00;68.80;;;;;;6237259;23;20000;-72
2022/05/21 13:01:05;;;;;;;1.48;0.40;;;25.00;69.00;;;;;;6237780;23;20012;-77
2022/05/21 13:03:33;;;;;;;3.72;0.85;;;25.10;65.00;;;;;;6237181;23;20374;-74
2022/05/21 13:06:06;;;;;;;1.30;0.60;;;24.90;68.00;;;;;;6236733;23;20011;-73
2022/05/21 13:08:36;;;;;;;1.75;0.88;;;25.00;70.10;;;;;;6237015;23;20004;-69
2022/05/21 13:11:05;;;;;;;3.10;0.63;;;25.00;67.00;;;;;;6235716;23;20032;-65
2022/05/21 13:13:35;;;;;;;0.98;0.70;;;25.00;66.70;;;;;;6237342;23;20054;-64
2022/05/21 13:16:04;;;;;;;2.75;0.95;;;25.00;65.60;;;;;;6237243;23;19996;-68
2022/05/21 13:18:33;;;;;;;7.68;0.95;;;24.90;64.10;;;;;;6236893;23;20004;-65
2022/05/21 13:21:16;;;;;;;0.63;0.52;;;24.80;66.40;;;;;;6236555;23;20087;-64
2022/05/21 13:24:22;;;;;;;1.90;1.05;;;24.90;65.90;;;;;;6236422;23;20000;-64
2022/05/21 13:27:06;;;;;;;1.48;0.80;;;25.00;66.10;;;;;;6237279;23;20066;-68
2022/05/21 13:29:32;;;;;;;2.42;0.50;;;24.90;62.60;;;;;;6238239;23;20100;-69
2022/05/21 13:32:16;;;;;;;0.43;0.40;;;25.00;60.30;;;;;;6236533;23;20473;-69
2022/05/21 13:34:41;;;;;;;2.78;0.52;;;25.00;59.00;;;;;;6237466;23;20078;-71
2022/05/21 13:37:08;;;;;;;1.65;0.57;;;25.00;60.80;;;;;;6236713;23;20042;-72
2022/05/21 13:39:36;;;;;;;2.22;0.60;;;25.10;60.10;;;;;;6237428;23;20003;-69
2022/05/21 13:42:08;;;;;;;2.38;0.63;;;25.20;58.20;;;;;;6236140;23;20019;-67
2022/05/21 13:44:36;;;;;;;1.60;0.82;;;25.10;60.10;;;;;;6238094;23;20008;-67
2022/05/21 13:47:19;;;;;;;1.95;0.63;;;25.10;60.50;;;;;;6236526;23;20097;-64
2022/05/21 13:49:49;;;;;;;0.93;0.40;;;25.20;62.80;;;;;;6236590;23;20004;-64
2022/05/21 13:52:16;;;;;;;2.28;0.50;;;25.30;59.60;;;;;;6236987;23;20007;-64
2022/05/21 13:54:42;;;;;;;2.88;0.70;;;25.50;62.20;;;;;;6237369;23;20307;-64
2022/05/21 13:57:34;;;;;;;3.13;0.60;;;25.60;57.70;;;;;;6238380;23;20008;-70
2022/05/21 14:00:04;;;;;;;;;;;25.50;55.80;;;;;;6231733;23;20040;-68